Time;durP1;ratioP1;P1;durP2;ratioP2;P2;SDS_P1;SDS_P2;PMS_P1;PMS_P2;Temp;Humidity;BMP_temperature;BMP_pressure;BME280_temperature;BME280_humidity;BME280_pressure;Samples;Min_cycle;Max_cycle;Signal;HPM_P1;HPM_P2
2020/12/28 00:02:09;;;;;;;;;;;5.50;90.70;;;;;;5094421;28;20351;-75
2020/12/28 00:04:36;;;;;;;;;;;5.50;90.70;;;;;;5095080;28;19939;-72
2020/12/28 00:07:02;;;;;;;;;;;5.40;90.40;;;;;;5094895;28;19924;-69
2020/12/28 00:09:28;;;;;;;;;;;5.50;90.40;;;;;;5093844;28;19924;-69
2020/12/28 00:11:55;;;;;;;;;;;5.50;90.20;;;;;;5090481;28;19928;-67
2020/12/28 00:14:21;;;;;;;;;;;5.40;90.50;;;;;;5093959;28;19954;-69
2020/12/28 00:16:47;;;;;;;;;;;5.50;90.40;;;;;;5093659;28;19928;-69
2020/12/28 00:19:13;;;;;;;;;;;5.50;90.20;;;;;;5093555;28;19965;-70
2020/12/28 00:21:40;;;;;;;;;;;5.50;90.10;;;;;;5093836;28;19924;-70
2020/12/28 00:24:06;;;;;;;;;;;5.30;90.50;;;;;;5093676;28;19928;-66
2020/12/28 00:26:40;;;;;;;;;;;5.30;90.90;;;;;;5101590;28;19924;-69
2020/12/28 00:29:06;;;;;;;;;;;5.20;91.10;;;;;;5113969;28;19948;-67
2020/12/28 00:31:33;;;;;;;;;;;5.30;91.20;;;;;;5114187;28;19923;-69
2020/12/28 00:34:00;;;;;;;;;;;5.30;91.30;;;;;;5093433;28;19942;-70
2020/12/28 00:36:26;;;;;;;;;;;5.40;91.00;;;;;;5094070;28;20220;-68
2020/12/28 00:38:53;;;;;;;;;;;5.40;91.30;;;;;;5114914;28;19924;-74
2020/12/28 00:41:19;;;;;;;;;;;5.40;91.10;;;;;;5110363;28;19924;-69
2020/12/28 00:43:45;;;;;;;;;;;5.40;91.10;;;;;;5097099;28;19927;-72
2020/12/28 00:46:13;;;;;;;;;;;5.50;90.90;;;;;;5096426;28;19985;-70
2020/12/28 00:48:40;;;;;;;;;;;5.40;90.90;;;;;;5096328;28;19924;-76
2020/12/28 00:51:06;;;;;;;;;;;5.60;91.10;;;;;;5095438;28;20346;-71
2020/12/28 00:53:32;;;;;;;;;;;5.70;90.40;;;;;;5095395;28;19932;-72
2020/12/28 00:55:59;;;;;;;;;;;5.90;90.60;;;;;;5094225;28;19940;-72
2020/12/28 00:58:25;;;;;;;;;;;5.90;90.10;;;;;;5093002;28;19924;-70
2020/12/28 01:00:52;;;;;;;;;;;6.10;90.00;;;;;;5093175;28;19924;-67
2020/12/28 01:03:18;;;;;;;;;;;6.10;89.70;;;;;;5075048;28;20367;-70
2020/12/28 01:05:44;;;;;;;;;;;6.20;89.10;;;;;;5093470;28;20339;-71
2020/12/28 01:08:10;;;;;;;;;;;6.10;89.60;;;;;;5092843;28;19931;-71
2020/12/28 01:10:37;;;;;;;;;;;6.10;88.50;;;;;;5093061;28;19928;-70
2020/12/28 01:13:05;;;;;;;;;;;6.00;88.80;;;;;;5093026;28;19978;-69
2020/12/28 01:15:32;;;;;;;;;;;5.90;89.30;;;;;;5092631;28;19929;-70
2020/12/28 01:17:58;;;;;;;;;;;6.00;88.90;;;;;;5092711;28;19930;-70
2020/12/28 01:20:24;;;;;;;;;;;5.90;89.10;;;;;;5092881;28;19925;-68
2020/12/28 01:22:50;;;;;;;;;;;5.90;89.10;;;;;;5092506;28;19924;-69
2020/12/28 01:25:17;;;;;;;;;;;6.00;88.80;;;;;;5091615;28;19924;-70
2020/12/28 01:27:43;;;;;;;;;;;6.00;88.30;;;;;;5110295;28;19978;-70
2020/12/28 01:30:09;;;;;;;;;;;6.00;87.70;;;;;;5112898;28;19930;-68
2020/12/28 01:32:35;;;;;;;;;;;6.10;88.30;;;;;;5104100;28;19924;-70
2020/12/28 01:35:02;;;;;;;;;;;6.00;87.00;;;;;;5092367;28;19924;-69
2020/12/28 01:37:28;;;;;;;;;;;6.00;88.00;;;;;;5099508;28;19935;-69
2020/12/28 01:39:55;;;;;;;;;;;6.00;87.90;;;;;;5112678;28;19927;-69
2020/12/28 01:42:21;;;;;;;;;;;6.00;87.70;;;;;;5079256;28;19924;-67
2020/12/28 01:44:47;;;;;;;;;;;6.00;87.30;;;;;;5092220;28;19928;-69
2020/12/28 01:47:14;;;;;;;;;;;6.10;88.20;;;;;;5091980;28;19928;-68
2020/12/28 01:49:40;;;;;;;;;;;6.10;87.50;;;;;;5057192;28;19925;-70
2020/12/28 01:52:06;;;;;;;;;;;6.10;87.40;;;;;;5072311;28;20327;-66
2020/12/28 01:54:33;;;;;;;;;;;6.20;87.20;;;;;;5071604;28;19932;-66
2020/12/28 01:56:59;;;;;;;;;;;6.20;87.90;;;;;;5071935;28;19924;-67
2020/12/28 01:59:25;;;;;;;;;;;6.20;87.50;;;;;;5087469;28;19932;-68
2020/12/28 02:01:54;;;;;;;;;;;6.00;88.70;;;;;;5071819;28;19931;-69
2020/12/28 02:04:20;;;;;;;;;;;6.10;88.20;;;;;;5072046;28;19924;-69
2020/12/28 02:06:47;;;;;;;;;;;6.10;88.80;;;;;;5071766;28;19924;-70
2020/12/28 02:09:14;;;;;;;;;;;6.20;88.70;;;;;;5071315;28;20171;-69
2020/12/28 02:11:40;;;;;;;;;;;6.00;89.20;;;;;;5071439;28;19928;-73
2020/12/28 02:14:07;;;;;;;;;;;6.10;89.00;;;;;;5071289;28;19924;-69
2020/12/28 02:16:33;;;;;;;;;;;6.10;89.40;;;;;;5093317;28;19931;-70
2020/12/28 02:19:00;;;;;;;;;;;6.10;89.30;;;;;;5111981;28;19927;-70
2020/12/28 02:21:26;;;;;;;;;;;6.10;89.20;;;;;;5111946;28;19924;-70
2020/12/28 02:23:53;;;;;;;;;;;6.10;88.80;;;;;;5093873;28;19924;-70
2020/12/28 02:26:19;;;;;;;;;;;6.10;88.90;;;;;;5105509;28;19924;-70
2020/12/28 02:28:45;;;;;;;;;;;6.10;89.00;;;;;;5091446;28;20357;-71
2020/12/28 02:31:12;;;;;;;;;;;6.20;89.00;;;;;;5091675;28;19923;-71
2020/12/28 02:33:40;;;;;;;;;;;6.10;88.40;;;;;;5095779;28;19924;-71
2020/12/28 02:36:09;;;;;;;;;;;6.10;88.90;;;;;;5091265;28;19932;-68
2020/12/28 02:38:36;;;;;;;;;;;6.20;88.90;;;;;;5089574;28;19924;-68
2020/12/28 02:41:05;;;;;;;;;;;6.30;88.30;;;;;;5106896;28;19928;-67
2020/12/28 02:43:32;;;;;;;;;;;6.30;88.30;;;;;;5090876;28;19939;-69
2020/12/28 02:45:59;;;;;;;;;;;6.30;88.40;;;;;;5090651;28;20314;-70
2020/12/28 02:48:25;;;;;;;;;;;6.30;88.50;;;;;;5090818;28;19932;-68
2020/12/28 02:50:52;;;;;;;;;;;6.20;88.20;;;;;;5090861;28;20063;-69
2020/12/28 02:53:18;;;;;;;;;;;6.30;88.30;;;;;;5091110;28;19939;-69
2020/12/28 02:55:45;;;;;;;;;;;6.40;88.00;;;;;;5091121;28;19924;-69
2020/12/28 02:58:11;;;;;;;;;;;6.40;88.30;;;;;;5090684;28;19953;-68
2020/12/28 03:00:37;;;;;;;;;;;6.40;88.50;;;;;;5090542;28;19924;-69
2020/12/28 03:03:04;;;;;;;;;;;6.30;88.60;;;;;;5091055;28;19928;-69
2020/12/28 03:05:30;;;;;;;;;;;6.50;88.70;;;;;;5090646;28;19924;-70
2020/12/28 03:07:57;;;;;;;;;;;6.40;88.50;;;;;;5090877;28;20436;-72
2020/12/28 03:10:23;;;;;;;;;;;6.30;88.80;;;;;;5090531;28;19924;-69
2020/12/28 03:12:49;;;;;;;;;;;6.30;89.10;;;;;;5090557;28;19924;-67
2020/12/28 03:15:15;;;;;;;;;;;6.30;89.40;;;;;;5090554;28;19928;-69
2020/12/28 03:17:42;;;;;;;;;;;6.30;89.60;;;;;;5091123;28;20429;-66
2020/12/28 03:20:08;;;;;;;;;;;6.30;89.50;;;;;;5090555;28;19949;-70
2020/12/28 03:22:34;;;;;;;;;;;6.30;89.70;;;;;;5090819;28;19924;-70
2020/12/28 03:25:00;;;;;;;;;;;6.40;89.20;;;;;;5090700;28;19970;-68
2020/12/28 03:27:26;;;;;;;;;;;6.40;88.60;;;;;;5090439;28;19924;-70
2020/12/28 03:29:53;;;;;;;;;;;6.50;88.50;;;;;;5090729;28;19928;-69
2020/12/28 03:32:19;;;;;;;;;;;6.50;88.90;;;;;;5077065;28;19923;-68
2020/12/28 03:34:45;;;;;;;;;;;6.40;88.80;;;;;;5090606;28;20435;-69
2020/12/28 03:37:12;;;;;;;;;;;6.40;88.60;;;;;;5100465;28;19924;-69
2020/12/28 03:39:39;;;;;;;;;;;6.40;88.60;;;;;;5131596;28;19924;-67
2020/12/28 03:42:06;;;;;;;;;;;6.50;89.20;;;;;;5104516;28;19967;-66
2020/12/28 03:44:33;;;;;;;;;;;6.50;87.70;;;;;;5090877;28;19928;-69
2020/12/28 03:46:59;;;;;;;;;;;6.60;86.70;;;;;;5090847;28;19928;-70
2020/12/28 03:49:25;;;;;;;;;;;6.60;86.80;;;;;;5079650;28;19928;-69
2020/12/28 03:51:52;;;;;;;;;;;6.60;87.20;;;;;;5087599;28;19924;-69
2020/12/28 03:54:18;;;;;;;;;;;6.60;87.20;;;;;;5094501;28;19950;-68
2020/12/28 03:56:45;;;;;;;;;;;6.60;86.50;;;;;;5094409;28;20398;-67
2020/12/28 03:59:11;;;;;;;;;;;6.60;86.50;;;;;;5094903;28;19977;-67
2020/12/28 04:01:37;;;;;;;;;;;6.60;86.30;;;;;;5095096;28;19977;-70
2020/12/28 04:04:04;;;;;;;;;;;6.70;84.40;;;;;;5096258;28;19924;-69
2020/12/28 04:06:30;;;;;;;;;;;6.70;85.10;;;;;;5095580;28;19924;-69
2020/12/28 04:08:56;;;;;;;;;;;6.70;85.40;;;;;;5093998;28;19924;-69
2020/12/28 04:11:22;;;;;;;;;;;6.70;85.00;;;;;;5095118;28;19935;-67
2020/12/28 04:13:49;;;;;;;;;;;6.70;84.30;;;;;;5095666;28;20345;-68
2020/12/28 04:16:15;;;;;;;;;;;6.70;85.40;;;;;;5087144;28;19924;-69
2020/12/28 04:18:42;;;;;;;;;;;6.70;85.70;;;;;;5075593;28;19925;-69
2020/12/28 04:21:08;;;;;;;;;;;6.70;84.60;;;;;;5074655;28;20338;-69
2020/12/28 04:23:35;;;;;;;;;;;6.60;84.20;;;;;;5075618;28;19928;-70
2020/12/28 04:26:02;;;;;;;;;;;6.70;85.70;;;;;;5077951;28;20427;-70
2020/12/28 04:28:28;;;;;;;;;;;6.70;85.30;;;;;;5094912;28;19969;-70
2020/12/28 04:30:55;;;;;;;;;;;6.70;85.10;;;;;;5093301;28;20181;-70
2020/12/28 04:33:21;;;;;;;;;;;6.80;84.20;;;;;;5078644;28;19928;-67
2020/12/28 04:35:47;;;;;;;;;;;6.80;83.00;;;;;;5072940;28;19925;-67
2020/12/28 04:38:13;;;;;;;;;;;6.70;85.00;;;;;;5086711;28;19928;-67
2020/12/28 04:40:40;;;;;;;;;;;6.80;84.40;;;;;;5091925;28;19928;-69
2020/12/28 04:43:13;;;;;;;;;;;6.80;84.40;;;;;;5073174;28;19978;-65
2020/12/28 04:45:40;;;;;;;;;;;6.80;83.10;;;;;;5072826;28;19925;-68
2020/12/28 04:48:07;;;;;;;;;;;6.80;83.70;;;;;;5076285;28;19928;-69
2020/12/28 04:50:34;;;;;;;;;;;6.80;83.30;;;;;;5075217;28;19924;-67
2020/12/28 04:53:02;;;;;;;;;;;6.80;84.30;;;;;;5093076;28;19924;-68
2020/12/28 04:55:28;;;;;;;;;;;6.80;84.20;;;;;;5093265;28;19935;-69
2020/12/28 04:57:54;;;;;;;;;;;6.80;84.40;;;;;;5092993;28;19946;-68
2020/12/28 05:00:20;;;;;;;;;;;6.70;84.20;;;;;;5093108;28;19935;-70
2020/12/28 05:02:47;;;;;;;;;;;6.70;84.10;;;;;;5093228;28;19924;-70
2020/12/28 05:05:13;;;;;;;;;;;6.60;84.00;;;;;;5092787;28;19928;-70
2020/12/28 05:07:42;;;;;;;;;;;6.60;85.40;;;;;;5092882;28;19924;-69
2020/12/28 05:10:19;;;;;;;;;;;6.60;84.70;;;;;;5092732;28;19931;-69
2020/12/28 05:12:45;;;;;;;;;;;6.70;84.10;;;;;;5092945;28;19928;-70
2020/12/28 05:15:11;;;;;;;;;;;6.70;83.80;;;;;;5092936;28;19950;-69
2020/12/28 05:17:38;;;;;;;;;;;6.70;84.40;;;;;;5092750;28;19947;-66
2020/12/28 05:20:04;;;;;;;;;;;6.60;84.80;;;;;;5092689;28;19924;-67
2020/12/28 05:22:31;;;;;;;;;;;6.60;84.20;;;;;;5092717;28;19924;-68
2020/12/28 05:24:58;;;;;;;;;;;6.60;83.30;;;;;;5092397;28;20410;-70
2020/12/28 05:27:25;;;;;;;;;;;6.70;83.80;;;;;;5074211;28;19932;-69
2020/12/28 05:29:53;;;;;;;;;;;6.70;83.00;;;;;;5092408;28;19935;-68
2020/12/28 05:32:19;;;;;;;;;;;6.70;83.80;;;;;;5097130;28;19992;-70
2020/12/28 05:34:46;;;;;;;;;;;6.70;83.60;;;;;;5092296;28;20392;-69
2020/12/28 05:37:13;;;;;;;;;;;6.70;83.90;;;;;;5097616;28;20325;-69
2020/12/28 05:39:43;;;;;;;;;;;6.90;83.50;;;;;;5112269;28;20372;-69
2020/12/28 05:42:13;;;;;;;;;;;6.90;83.20;;;;;;5080778;28;19931;-70
2020/12/28 05:44:39;;;;;;;;;;;6.80;83.70;;;;;;5091737;28;20395;-67
2020/12/28 05:47:07;;;;;;;;;;;6.80;83.50;;;;;;5091845;28;19954;-70
2020/12/28 05:49:35;;;;;;;;;;;6.80;84.40;;;;;;5091759;28;19924;-70
2020/12/28 05:52:02;;;;;;;;;;;6.70;83.30;;;;;;5091900;28;20346;-69
2020/12/28 05:54:29;;;;;;;;;;;6.70;84.00;;;;;;5091937;28;19931;-70
2020/12/28 05:56:57;;;;;;;;;;;6.70;84.40;;;;;;5091601;28;19931;-69
2020/12/28 05:59:23;;;;;;;;;;;6.80;84.30;;;;;;5091704;28;19939;-70
2020/12/28 06:01:50;;;;;;;;;;;6.70;84.20;;;;;;5091852;28;19928;-70
2020/12/28 06:04:17;;;;;;;;;;;6.70;83.70;;;;;;5091359;28;20375;-71
2020/12/28 06:06:44;;;;;;;;;;;6.70;83.00;;;;;;5091506;28;19977;-69
2020/12/28 06:09:14;;;;;;;;;;;6.70;83.20;;;;;;5091359;28;19935;-68
2020/12/28 06:11:40;;;;;;;;;;;6.70;83.00;;;;;;5091018;28;19932;-66
2020/12/28 06:14:13;;;;;;;;;;;6.60;83.50;;;;;;5091681;28;20288;-66
2020/12/28 06:16:40;;;;;;;;;;;6.70;83.50;;;;;;5091560;28;19932;-68
2020/12/28 06:19:06;;;;;;;;;;;6.60;83.10;;;;;;5091531;28;19939;-69
2020/12/28 06:21:36;;;;;;;;;;;6.60;84.00;;;;;;5091361;28;19931;-71
2020/12/28 06:24:03;;;;;;;;;;;6.70;84.20;;;;;;5091356;28;19932;-68
2020/12/28 06:26:30;;;;;;;;;;;6.70;84.10;;;;;;5098426;28;20112;-69
2020/12/28 06:29:03;;;;;;;;;;;6.70;84.00;;;;;;5111470;28;20419;-69
2020/12/28 06:31:29;;;;;;;;;;;6.70;83.60;;;;;;5111364;28;19930;-68
2020/12/28 06:33:56;;;;;;;;;;;6.70;83.10;;;;;;5096640;28;19932;-66
2020/12/28 06:36:22;;;;;;;;;;;6.60;82.60;;;;;;5091399;28;19924;-70
2020/12/28 06:38:58;;;;;;;;;;;6.60;83.90;;;;;;5110087;28;19924;-68
2020/12/28 06:41:25;;;;;;;;;;;6.60;83.80;;;;;;5104721;28;20068;-66
2020/12/28 06:43:54;;;;;;;;;;;6.60;84.30;;;;;;5091361;28;19928;-71
2020/12/28 06:46:21;;;;;;;;;;;6.60;85.30;;;;;;5093300;28;19931;-67
2020/12/28 06:48:48;;;;;;;;;;;6.40;87.00;;;;;;5093773;28;19924;-69
2020/12/28 06:51:16;;;;;;;;;;;6.40;86.50;;;;;;5093043;28;19925;-68
2020/12/28 06:53:43;;;;;;;;;;;6.40;85.80;;;;;;5093275;28;19924;-70
2020/12/28 06:56:10;;;;;;;;;;;6.50;85.30;;;;;;5091666;28;19924;-70
2020/12/28 06:58:36;;;;;;;;;;;6.50;84.80;;;;;;5090767;28;20304;-70
2020/12/28 07:01:06;;;;;;;;;;;6.50;85.70;;;;;;5090451;28;19935;-68
2020/12/28 07:03:33;;;;;;;;;;;6.60;85.00;;;;;;5090692;28;19928;-69
2020/12/28 07:06:03;;;;;;;;;;;6.50;84.20;;;;;;5090328;28;19928;-69
2020/12/28 07:08:29;;;;;;;;;;;6.50;85.20;;;;;;5090300;28;19924;-70
2020/12/28 07:10:57;;;;;;;;;;;6.50;85.20;;;;;;5090587;28;20007;-69
2020/12/28 07:13:23;;;;;;;;;;;6.50;85.10;;;;;;5090708;28;19924;-67
2020/12/28 07:15:49;;;;;;;;;;;6.40;85.70;;;;;;5095608;28;20349;-70
2020/12/28 07:18:18;;;;;;;;;;;6.50;86.10;;;;;;5113262;28;19989;-72
2020/12/28 07:20:53;;;;;;;;;;;6.40;84.70;;;;;;5115047;28;19935;-69
2020/12/28 07:23:27;;;;;;;;;;;6.40;85.90;;;;;;5113910;28;19966;-70
2020/12/28 07:26:07;;;;;;;;;;;6.30;85.50;;;;;;5111685;28;20320;-69
2020/12/28 07:28:34;;;;;;;;;;;6.30;85.10;;;;;;5076764;28;19935;-72
2020/12/28 07:31:01;;;;;;;;;;;6.30;84.30;;;;;;5092182;28;19924;-70
2020/12/28 07:33:28;;;;;;;;;;;6.30;84.80;;;;;;5094649;28;19932;-70
2020/12/28 07:36:14;;;;;;;;;;;6.40;84.90;;;;;;5089879;28;19928;-71
2020/12/28 07:38:42;;;;;;;;;;;6.50;85.30;;;;;;5107834;28;20319;-68
2020/12/28 07:41:16;;;;;;;;;;;6.50;84.00;;;;;;5105051;28;20299;-68
2020/12/28 07:43:52;;;;;;;;;;;6.50;85.30;;;;;;5090005;28;19931;-70
2020/12/28 07:46:21;;;;;;;;;;;6.50;84.60;;;;;;5090104;28;19924;-70
2020/12/28 07:48:51;;;;;;;;;;;6.50;84.00;;;;;;5089750;28;19928;-68
2020/12/28 07:51:18;;;;;;;;;;;6.60;83.00;;;;;;5089484;28;19931;-68
2020/12/28 07:53:49;;;;;;;;;;;6.60;81.30;;;;;;5090249;28;19947;-68
2020/12/28 07:56:42;;;;;;;;;;;6.60;83.10;;;;;;5090206;28;19973;-69
2020/12/28 07:59:37;;;;;;;;;;;6.30;82.60;;;;;;5059485;28;19928;-69
2020/12/28 08:02:13;;;;;;;;;;;6.20;83.00;;;;;;5091347;28;19948;-67
2020/12/28 08:04:39;;;;;;;;;;;6.20;83.10;;;;;;5091136;28;19924;-70
2020/12/28 08:07:05;;;;;;;;;;;6.10;83.40;;;;;;5091020;28;19997;-69
2020/12/28 08:09:32;;;;;;;;;;;6.00;82.20;;;;;;5089995;28;19932;-69
2020/12/28 08:11:59;;;;;;;;;;;6.10;83.90;;;;;;5090164;28;19971;-67
2020/12/28 08:14:26;;;;;;;;;;;6.10;83.40;;;;;;5089756;28;20446;-70
2020/12/28 08:16:53;;;;;;;;;;;6.10;82.30;;;;;;5089798;28;19924;-68
2020/12/28 08:19:26;;;;;;;;;;;6.00;83.30;;;;;;5090068;28;19928;-70
2020/12/28 08:21:52;;;;;;;;;;;6.10;83.40;;;;;;5089972;28;19924;-68
2020/12/28 08:24:19;;;;;;;;;;;6.10;82.40;;;;;;5090055;28;19924;-68
2020/12/28 08:26:46;;;;;;;;;;;6.20;81.50;;;;;;5099336;28;19931;-66
2020/12/28 08:29:13;;;;;;;;;;;6.20;81.00;;;;;;5110100;28;19985;-69
2020/12/28 08:31:40;;;;;;;;;;;6.20;82.90;;;;;;5108368;28;19985;-70
2020/12/28 08:34:13;;;;;;;;;;;6.20;80.20;;;;;;5090575;28;20387;-67
2020/12/28 08:36:41;;;;;;;;;;;6.30;82.20;;;;;;5093723;28;19924;-66
2020/12/28 08:39:10;;;;;;;;;;;6.30;81.70;;;;;;5113582;28;19924;-67
2020/12/28 08:41:37;;;;;;;;;;;6.30;81.10;;;;;;5104535;28;19924;-66
2020/12/28 08:44:03;;;;;;;;;;;6.30;79.80;;;;;;5093238;28;19928;-67
2020/12/28 08:46:29;;;;;;;;;;;6.20;81.80;;;;;;5092835;28;19931;-69
2020/12/28 08:48:56;;;;;;;;;;;6.20;83.10;;;;;;5092936;28;19928;-68
2020/12/28 08:51:22;;;;;;;;;;;6.50;81.20;;;;;;5092662;28;19924;-68
2020/12/28 08:53:49;;;;;;;;;;;6.50;81.20;;;;;;5093190;28;19932;-66
2020/12/28 08:56:19;;;;;;;;;;;6.40;81.90;;;;;;5093012;28;20627;-68
2020/12/28 08:58:49;;;;;;;;;;;6.30;80.30;;;;;;5092984;28;19928;-66
2020/12/28 09:01:15;;;;;;;;;;;6.30;81.00;;;;;;5092596;28;19924;-67
2020/12/28 09:03:42;;;;;;;;;;;6.30;82.00;;;;;;5093041;28;19924;-69
2020/12/28 09:06:08;;;;;;;;;;;6.30;82.50;;;;;;5092606;28;19924;-67
2020/12/28 09:08:34;;;;;;;;;;;6.30;81.50;;;;;;5093395;28;19947;-67
2020/12/28 09:11:00;;;;;;;;;;;6.20;82.80;;;;;;5092882;28;19946;-68
2020/12/28 09:13:27;;;;;;;;;;;6.30;83.00;;;;;;5092555;28;19924;-68
2020/12/28 09:15:53;;;;;;;;;;;6.20;82.60;;;;;;5092731;28;19931;-69
2020/12/28 09:18:19;;;;;;;;;;;6.30;81.40;;;;;;5092979;28;20319;-69
2020/12/28 09:20:45;;;;;;;;;;;6.30;82.40;;;;;;5092628;28;19928;-71
2020/12/28 09:23:12;;;;;;;;;;;6.10;82.10;;;;;;5092322;28;19947;-70
2020/12/28 09:25:38;;;;;;;;;;;6.20;82.60;;;;;;5092528;28;19986;-68
2020/12/28 09:28:04;;;;;;;;;;;6.30;82.00;;;;;;5092270;28;19928;-70
2020/12/28 09:30:30;;;;;;;;;;;6.30;80.70;;;;;;5092453;28;20449;-71
2020/12/28 09:32:57;;;;;;;;;;;6.30;81.80;;;;;;5097395;28;20332;-70
2020/12/28 09:35:23;;;;;;;;;;;6.40;80.00;;;;;;5092277;28;19924;-70
2020/12/28 09:37:54;;;;;;;;;;;6.30;80.30;;;;;;5103195;28;19924;-70
2020/12/28 09:40:20;;;;;;;;;;;6.30;80.00;;;;;;5112453;28;19930;-71
2020/12/28 09:42:47;;;;;;;;;;;6.40;78.90;;;;;;5093527;28;19924;-67
2020/12/28 09:47:58;;;;;;;;;;;6.40;79.90;;;;;;5091831;28;19927;-71
2020/12/28 09:50:43;;;;;;;;;;;6.40;80.60;;;;;;5091940;28;19924;-71
2020/12/28 09:53:10;;;;;;;;;;;6.50;78.40;;;;;;5091685;28;19993;-71
2020/12/28 09:55:36;;;;;;;;;;;6.50;79.20;;;;;;5091964;28;19931;-70
2020/12/28 09:58:02;;;;;;;;;;;6.40;79.30;;;;;;5091669;28;20181;-70
2020/12/28 10:00:28;;;;;;;;;;;6.50;78.80;;;;;;5073795;28;19928;-71
2020/12/28 10:02:55;;;;;;;;;;;6.60;78.60;;;;;;5091324;28;19927;-71
2020/12/28 10:05:21;;;;;;;;;;;6.60;76.90;;;;;;5091496;28;19971;-71
2020/12/28 10:07:48;;;;;;;;;;;6.70;77.90;;;;;;5091357;28;20358;-70
2020/12/28 10:10:15;;;;;;;;;;;6.70;77.70;;;;;;5091380;28;20365;-70
2020/12/28 10:12:41;;;;;;;;;;;6.60;77.60;;;;;;5091536;28;19928;-72
2020/12/28 10:15:08;;;;;;;;;;;6.60;77.30;;;;;;5091199;28;20002;-71
2020/12/28 10:17:35;;;;;;;;;;;6.60;77.50;;;;;;5091449;28;19924;-71
2020/12/28 10:20:01;;;;;;;;;;;6.60;76.60;;;;;;5091218;28;19924;-70
2020/12/28 10:22:48;;;;;;;;;;;6.60;76.90;;;;;;5091474;28;19970;-71
2020/12/28 10:25:14;;;;;;;;;;;6.50;77.30;;;;;;5091184;28;19932;-70
2020/12/28 10:27:40;;;;;;;;;;;6.60;77.00;;;;;;5108459;28;19924;-70
2020/12/28 10:30:06;;;;;;;;;;;6.70;76.60;;;;;;5111639;28;19935;-71
2020/12/28 10:32:33;;;;;;;;;;;6.70;77.30;;;;;;5103153;28;19931;-71
2020/12/28 10:34:59;;;;;;;;;;;6.90;75.90;;;;;;5091299;28;20500;-71
2020/12/28 10:37:25;;;;;;;;;;;6.90;76.30;;;;;;5098011;28;19931;-70
2020/12/28 10:40:12;;;;;;;;;;;6.90;74.80;;;;;;5111271;28;20016;-71
2020/12/28 10:42:38;;;;;;;;;;;7.00;76.10;;;;;;5093237;28;19924;-67
2020/12/28 10:45:05;;;;;;;;;;;7.00;75.30;;;;;;5090892;28;19927;-70
2020/12/28 10:47:31;;;;;;;;;;;7.00;75.40;;;;;;5090693;28;19928;-71
2020/12/28 10:49:57;;;;;;;;;;;6.90;74.10;;;;;;5090477;28;19924;-71
2020/12/28 10:52:24;;;;;;;;;;;6.90;74.70;;;;;;5072605;28;19924;-70
2020/12/28 10:54:50;;;;;;;;;;;6.80;75.70;;;;;;5090572;28;19924;-71
2020/12/28 10:57:16;;;;;;;;;;;7.00;75.60;;;;;;5090453;28;19935;-71
2020/12/28 10:59:42;;;;;;;;;;;6.90;75.70;;;;;;5090196;28;19924;-70
2020/12/28 11:02:09;;;;;;;;;;;7.00;74.90;;;;;;5090246;28;20402;-69
2020/12/28 11:04:35;;;;;;;;;;;7.00;74.60;;;;;;5090667;28;20423;-70
2020/12/28 11:07:01;;;;;;;;;;;7.10;74.50;;;;;;5090282;28;19924;-70
2020/12/28 11:09:28;;;;;;;;;;;6.90;72.80;;;;;;5090488;28;19924;-71
2020/12/28 11:11:54;;;;;;;;;;;6.80;73.80;;;;;;5072412;28;19924;-70
2020/12/28 11:14:20;;;;;;;;;;;6.90;74.00;;;;;;5090309;28;19924;-71
2020/12/28 11:16:47;;;;;;;;;;;6.90;74.90;;;;;;5090346;28;20015;-70
2020/12/28 11:19:13;;;;;;;;;;;6.80;75.00;;;;;;5090493;28;20149;-70
2020/12/28 11:21:42;;;;;;;;;;;6.80;75.50;;;;;;5090414;28;19939;-70
2020/12/28 11:24:09;;;;;;;;;;;6.60;74.80;;;;;;5090208;28;19924;-71
2020/12/28 11:26:35;;;;;;;;;;;6.70;76.70;;;;;;5098296;28;19938;-70
2020/12/28 11:29:05;;;;;;;;;;;6.90;75.60;;;;;;5110519;28;19923;-71
2020/12/28 11:31:32;;;;;;;;;;;6.90;74.80;;;;;;5110295;28;20400;-70
2020/12/28 11:33:58;;;;;;;;;;;7.00;75.30;;;;;;5090453;28;19924;-68
2020/12/28 11:36:24;;;;;;;;;;;7.10;73.90;;;;;;5090210;28;20136;-70
2020/12/28 11:38:51;;;;;;;;;;;7.00;73.90;;;;;;5108857;28;19924;-70
2020/12/28 11:41:17;;;;;;;;;;;6.80;75.30;;;;;;5103844;28;19928;-67
2020/12/28 11:43:44;;;;;;;;;;;6.80;75.90;;;;;;5089770;28;19931;-67
2020/12/28 11:46:10;;;;;;;;;;;6.80;75.70;;;;;;5090131;28;19931;-71
2020/12/28 11:48:37;;;;;;;;;;;6.90;76.10;;;;;;5089589;28;19928;-68
2020/12/28 11:51:04;;;;;;;;;;;7.10;76.00;;;;;;5089531;28;19924;-76
2020/12/28 11:53:31;;;;;;;;;;;7.10;75.50;;;;;;5089955;28;19928;-70
2020/12/28 11:56:04;;;;;;;;;;;6.90;74.60;;;;;;5089552;28;19928;-70
2020/12/28 11:58:30;;;;;;;;;;;7.20;74.60;;;;;;5090123;28;19928;-71
2020/12/28 12:00:57;;;;;;;;;;;7.10;74.90;;;;;;5089715;28;20391;-71
2020/12/28 12:03:24;;;;;;;;;;;7.20;74.60;;;;;;5089818;28;19931;-71
2020/12/28 12:05:50;;;;;;;;;;;7.40;75.30;;;;;;5089778;28;19928;-71
2020/12/28 12:08:16;;;;;;;;;;;7.60;74.30;;;;;;5090048;28;20461;-66
2020/12/28 12:10:42;;;;;;;;;;;7.60;73.30;;;;;;5093677;28;19928;-70
2020/12/28 12:13:08;;;;;;;;;;;7.70;73.50;;;;;;5093671;28;19928;-71
2020/12/28 12:15:41;;;;;;;;;;;7.70;72.40;;;;;;5096118;28;19924;-68
2020/12/28 12:18:07;;;;;;;;;;;7.40;73.00;;;;;;5113924;28;20399;-70
2020/12/28 12:20:33;;;;;;;;;;;7.50;71.80;;;;;;5113801;28;20360;-72
2020/12/28 12:23:00;;;;;;;;;;;7.30;72.90;;;;;;5114014;28;19928;-70
2020/12/28 12:25:26;;;;;;;;;;;7.30;73.30;;;;;;5114024;28;19931;-68
2020/12/28 12:27:53;;;;;;;;;;;7.20;73.70;;;;;;5094657;28;20210;-69
2020/12/28 12:30:19;;;;;;;;;;;7.20;74.60;;;;;;5093738;28;19931;-68
2020/12/28 12:32:45;;;;;;;;;;;7.20;74.40;;;;;;5098002;28;19931;-66
2020/12/28 12:35:11;;;;;;;;;;;7.30;74.70;;;;;;5093240;28;19930;-69
2020/12/28 12:37:38;;;;;;;;;;;7.20;75.30;;;;;;5102029;28;19928;-66
2020/12/28 12:40:04;;;;;;;;;;;7.10;75.10;;;;;;5113789;28;19924;-66
2020/12/28 12:42:30;;;;;;;;;;;7.20;75.70;;;;;;5096866;28;19969;-66
2020/12/28 12:44:56;;;;;;;;;;;7.20;75.30;;;;;;5093163;28;19932;-71
2020/12/28 12:47:23;;;;;;;;;;;7.10;74.30;;;;;;5093881;28;19947;-70
2020/12/28 12:49:49;;;;;;;;;;;7.20;75.60;;;;;;5094394;28;19928;-71
2020/12/28 12:52:18;;;;;;;;;;;7.10;76.50;;;;;;5093898;28;19924;-72
2020/12/28 12:54:44;;;;;;;;;;;7.10;77.70;;;;;;5094050;28;19930;-71
2020/12/28 12:57:11;;;;;;;;;;;7.00;78.80;;;;;;5092837;28;19928;-66
2020/12/28 13:02:26;;;;;;;;;;;6.90;76.90;;;;;;5092919;28;19928;-70
2020/12/28 13:04:53;;;;;;;;;;;6.90;76.30;;;;;;5092862;28;19930;-71
2020/12/28 13:07:19;;;;;;;;;;;7.00;77.20;;;;;;5092931;28;19924;-70
2020/12/28 13:09:46;;;;;;;;;;;7.10;78.00;;;;;;5092969;28;19924;-71
2020/12/28 13:12:12;;;;;;;;;;;7.10;77.50;;;;;;5092662;28;19977;-70
2020/12/28 13:14:38;;;;;;;;;;;7.10;76.60;;;;;;5092901;28;19928;-75
2020/12/28 13:17:04;;;;;;;;;;;7.10;76.50;;;;;;5107640;28;20404;-71
2020/12/28 13:19:31;;;;;;;;;;;7.20;74.90;;;;;;5112619;28;19937;-70
2020/12/28 13:21:57;;;;;;;;;;;7.20;72.90;;;;;;5094916;28;20018;-70
2020/12/28 13:24:23;;;;;;;;;;;7.00;73.40;;;;;;5113066;28;19928;-70
2020/12/28 13:26:50;;;;;;;;;;;7.10;74.80;;;;;;5102431;28;19931;-70
2020/12/28 13:29:16;;;;;;;;;;;7.00;74.00;;;;;;5092618;28;19931;-70
2020/12/28 13:31:43;;;;;;;;;;;7.00;74.40;;;;;;5092863;28;20386;-69
2020/12/28 13:34:09;;;;;;;;;;;6.90;75.10;;;;;;5096052;28;20341;-70
2020/12/28 13:36:36;;;;;;;;;;;6.90;76.80;;;;;;5092355;28;20342;-68
2020/12/28 13:39:03;;;;;;;;;;;6.80;77.50;;;;;;5092324;28;19931;-66
2020/12/28 13:41:29;;;;;;;;;;;6.70;78.40;;;;;;5100316;28;19924;-66
2020/12/28 13:43:56;;;;;;;;;;;6.80;78.80;;;;;;5112487;28;20406;-68
2020/12/28 13:46:22;;;;;;;;;;;6.80;79.70;;;;;;5112122;28;20387;-67
2020/12/28 13:48:48;;;;;;;;;;;6.70;78.90;;;;;;5112487;28;19924;-71
2020/12/28 13:51:21;;;;;;;;;;;6.60;81.30;;;;;;5093932;28;20376;-70
2020/12/28 13:53:48;;;;;;;;;;;6.50;82.10;;;;;;5112800;28;19930;-70
2020/12/28 13:56:15;;;;;;;;;;;6.40;82.80;;;;;;5112872;28;19924;-69
2020/12/28 13:58:42;;;;;;;;;;;6.20;84.10;;;;;;5112796;28;20394;-66
2020/12/28 14:01:09;;;;;;;;;;;6.20;85.20;;;;;;5112362;28;20376;-66
2020/12/28 14:03:39;;;;;;;;;;;6.10;85.70;;;;;;5112140;28;20379;-70
2020/12/28 14:06:08;;;;;;;;;;;6.00;86.90;;;;;;5112316;28;19924;-70
2020/12/28 14:08:45;;;;;;;;;;;5.80;86.90;;;;;;5111961;28;20392;-69
2020/12/28 14:11:18;;;;;;;;;;;5.80;87.80;;;;;;5112343;28;19924;-66
2020/12/28 14:13:45;;;;;;;;;;;5.80;87.60;;;;;;5112752;28;19923;-71
2020/12/28 14:16:12;;;;;;;;;;;5.80;88.40;;;;;;5105323;28;19924;-70
2020/12/28 14:18:39;;;;;;;;;;;5.70;87.40;;;;;;5092032;28;19924;-70
2020/12/28 14:21:06;;;;;;;;;;;5.60;88.20;;;;;;5091355;28;19924;-69
2020/12/28 14:23:36;;;;;;;;;;;5.40;88.00;;;;;;5091209;28;19924;-70
2020/12/28 14:26:03;;;;;;;;;;;5.30;89.80;;;;;;5094533;28;19923;-67
2020/12/28 14:28:29;;;;;;;;;;;5.40;90.50;;;;;;5111516;28;19924;-67
2020/12/28 14:30:55;;;;;;;;;;;5.20;88.30;;;;;;5111475;28;19931;-66
2020/12/28 14:33:21;;;;;;;;;;;5.20;90.30;;;;;;5096284;28;19931;-69
2020/12/28 14:35:48;;;;;;;;;;;5.10;90.40;;;;;;5091151;28;20395;-69
2020/12/28 14:38:14;;;;;;;;;;;5.20;90.20;;;;;;5104849;28;20295;-69